Time;durP1;ratioP1;P1;durP2;ratioP2;P2;SDS_P1;SDS_P2;PMS_P1;PMS_P2;Temp;Humidity;BMP_temperature;BMP_pressure;BME280_temperature;BME280_humidity;BME280_pressure;Samples;Min_cycle;Max_cycle;Signal;HPM_P1;HPM_P2
2022/08/07 00:01:16;;;;;;;;;;;18.30;74.60;;;;;;4959968;28;19937;-85
2022/08/07 00:04:04;;;;;;;;;;;18.30;74.70;;;;;;4963611;28;19934;-87
2022/08/07 00:06:32;;;;;;;;;;;18.30;74.80;;;;;;4969924;28;19926;-86
2022/08/07 00:09:01;;;;;;;;;;;18.30;75.40;;;;;;4970011;28;19956;-86
2022/08/07 00:11:43;;;;;;;;;;;18.20;75.20;;;;;;4969659;28;19927;-85
2022/08/07 00:14:25;;;;;;;;;;;18.10;75.10;;;;;;4977066;28;19941;-86
2022/08/07 00:16:58;;;;;;;;;;;18.10;75.30;;;;;;4957153;28;20386;-88
2022/08/07 00:19:27;;;;;;;;;;;18.10;75.50;;;;;;4970316;28;19942;-85
2022/08/07 00:22:15;;;;;;;;;;;18.00;75.50;;;;;;4969526;28;19930;-85
2022/08/07 00:25:05;;;;;;;;;;;18.00;75.70;;;;;;4969119;28;19926;-85
2022/08/07 00:27:42;;;;;;;;;;;17.90;75.80;;;;;;4960013;28;19933;-86
2022/08/07 00:30:20;;;;;;;;;;;17.90;77.00;;;;;;4949201;29;19931;-86
2022/08/07 00:32:55;;;;;;;;;;;17.90;76.00;;;;;;4960099;28;19930;-86
2022/08/07 00:35:24;;;;;;;;;;;17.80;76.30;;;;;;4947692;29;19927;-86
2022/08/07 00:37:53;;;;;;;;;;;17.70;76.50;;;;;;4937469;28;19926;-86
2022/08/07 00:40:20;;;;;;;;;;;17.70;76.70;;;;;;4968364;28;19934;-85
2022/08/07 00:43:10;;;;;;;;;;;17.80;77.20;;;;;;4977259;28;20309;-86
2022/08/07 00:45:59;;;;;;;;;;;17.60;77.50;;;;;;4963181;28;19926;-85
2022/08/07 00:48:29;;;;;;;;;;;17.50;77.20;;;;;;4969744;28;19941;-86
2022/08/07 00:50:59;;;;;;;;;;;17.50;77.70;;;;;;4968064;28;19930;-85
2022/08/07 00:53:27;;;;;;;;;;;17.50;77.90;;;;;;4953463;28;19926;-85
2022/08/07 00:56:15;;;;;;;;;;;17.40;78.00;;;;;;4947518;28;20370;-86
2022/08/07 00:58:43;;;;;;;;;;;17.40;78.10;;;;;;4954144;28;20382;-88
2022/08/07 01:01:16;;;;;;;;;;;17.40;79.20;;;;;;4953327;28;19930;-86
2022/08/07 01:03:45;;;;;;;;;;;17.30;80.60;;;;;;4969922;28;19926;-85
2022/08/07 01:06:28;;;;;;;;;;;17.10;80.50;;;;;;4954199;28;19933;-86
2022/08/07 01:08:56;;;;;;;;;;;17.00;80.00;;;;;;4970290;28;19930;-84
2022/08/07 01:11:30;;;;;;;;;;;16.90;80.20;;;;;;4976872;28;19959;-87
2022/08/07 01:14:19;;;;;;;;;;;16.90;80.90;;;;;;4963378;28;20093;-91
2022/08/07 01:16:56;;;;;;;;;;;16.80;81.00;;;;;;4981273;28;19936;-86
2022/08/07 01:19:25;;;;;;;;;;;16.60;82.60;;;;;;4937867;28;19930;-88
2022/08/07 01:21:59;;;;;;;;;;;16.30;81.60;;;;;;4968240;28;19933;-88
2022/08/07 01:24:34;;;;;;;;;;;16.40;83.30;;;;;;4950810;29;19931;-87
2022/08/07 01:27:03;;;;;;;;;;;16.30;83.50;;;;;;4952252;28;19934;-86
2022/08/07 01:29:32;;;;;;;;;;;16.20;83.00;;;;;;4956902;28;19927;-86
2022/08/07 01:32:04;;;;;;;;;;;16.10;84.50;;;;;;4969644;28;19933;-87
2022/08/07 01:34:44;;;;;;;;;;;16.10;85.00;;;;;;4964779;28;19938;-91
2022/08/07 01:37:16;;;;;;;;;;;15.90;85.20;;;;;;4952459;28;19934;-88
2022/08/07 01:39:46;;;;;;;;;;;15.90;84.60;;;;;;4964936;28;19926;-88
2022/08/07 01:42:24;;;;;;;;;;;15.80;85.70;;;;;;4971345;28;19999;-87
2022/08/07 01:45:09;;;;;;;;;;;15.80;84.30;;;;;;4974030;28;20317;-84
2022/08/07 01:47:48;;;;;;;;;;;15.70;86.30;;;;;;4939617;28;19930;-91
2022/08/07 01:50:36;;;;;;;;;;;15.70;85.00;;;;;;4958012;28;19930;-89
2022/08/07 01:53:08;;;;;;;;;;;15.60;84.30;;;;;;4971010;28;19934;-85
2022/08/07 01:55:43;;;;;;;;;;;15.60;84.60;;;;;;4953007;28;19934;-85
2022/08/07 01:58:13;;;;;;;;;;;15.50;85.30;;;;;;4969261;28;19926;-87
2022/08/07 02:01:00;;;;;;;;;;;15.50;87.90;;;;;;4968588;28;19930;-86
2022/08/07 02:03:50;;;;;;;;;;;15.40;86.70;;;;;;4955008;28;20039;-85
2022/08/07 02:06:20;;;;;;;;;;;15.30;86.30;;;;;;4931643;28;19926;-87
2022/08/07 02:09:03;;;;;;;;;;;15.30;87.90;;;;;;4976366;28;19929;-86
2022/08/07 02:11:35;;;;;;;;;;;15.20;88.40;;;;;;4970966;28;19953;-86
2022/08/07 02:14:25;;;;;;;;;;;15.10;87.90;;;;;;4956462;28;20451;-85
2022/08/07 02:17:14;;;;;;;;;;;15.10;88.20;;;;;;4959054;28;19933;-88
2022/08/07 02:19:56;;;;;;;;;;;15.00;88.00;;;;;;4968809;28;19926;-87
2022/08/07 02:22:37;;;;;;;;;;;14.80;86.80;;;;;;4968759;28;19948;-89
2022/08/07 02:25:09;;;;;;;;;;;15.00;87.80;;;;;;4968732;28;19926;-88
2022/08/07 02:27:53;;;;;;;;;;;14.90;89.20;;;;;;4947328;28;19926;-86
2022/08/07 02:30:22;;;;;;;;;;;14.90;89.70;;;;;;4962553;28;19930;-87
2022/08/07 02:32:53;;;;;;;;;;;14.90;88.60;;;;;;4971666;28;19930;-87
2022/08/07 02:35:36;;;;;;;;;;;14.80;89.30;;;;;;4958859;28;19926;-85
2022/08/07 02:38:31;;;;;;;;;;;14.80;88.20;;;;;;4974102;28;19926;-87
2022/08/07 02:41:01;;;;;;;;;;;14.80;89.60;;;;;;4972560;28;20386;-85
2022/08/07 02:43:34;;;;;;;;;;;14.80;90.00;;;;;;4975145;28;19933;-90
2022/08/07 02:46:07;;;;;;;;;;;14.70;89.30;;;;;;4972841;28;19984;-89
2022/08/07 02:48:39;;;;;;;;;;;14.70;88.60;;;;;;4971848;28;19926;-87
2022/08/07 02:51:23;;;;;;;;;;;14.80;90.70;;;;;;4972963;28;19926;-91
2022/08/07 02:54:11;;;;;;;;;;;14.60;90.10;;;;;;4943094;28;20376;-88
2022/08/07 02:56:41;;;;;;;;;;;14.60;89.30;;;;;;4957639;28;19926;-89
2022/08/07 02:59:13;;;;;;;;;;;14.60;89.00;;;;;;4940556;28;19926;-88
2022/08/07 03:01:43;;;;;;;;;;;14.50;90.40;;;;;;4956598;28;19926;-87
2022/08/07 03:04:15;;;;;;;;;;;14.50;90.00;;;;;;4971406;28;19933;-85
2022/08/07 03:06:46;;;;;;;;;;;14.50;89.80;;;;;;4940348;28;19937;-86
2022/08/07 03:09:18;;;;;;;;;;;14.50;90.10;;;;;;4965364;28;19934;-86
2022/08/07 03:12:06;;;;;;;;;;;14.50;89.80;;;;;;4945106;28;19937;-87
2022/08/07 03:14:43;;;;;;;;;;;14.50;90.00;;;;;;4982715;28;19938;-88
2022/08/07 03:17:19;;;;;;;;;;;14.40;90.10;;;;;;4972282;28;19938;-86
2022/08/07 03:19:50;;;;;;;;;;;14.40;90.30;;;;;;4956035;28;20298;-85
2022/08/07 03:22:24;;;;;;;;;;;14.40;90.20;;;;;;4955737;28;20429;-85
2022/08/07 03:24:58;;;;;;;;;;;14.40;90.30;;;;;;4954750;28;19926;-85
2022/08/07 03:27:29;;;;;;;;;;;14.40;90.30;;;;;;4970021;28;19942;-85
2022/08/07 03:30:17;;;;;;;;;;;14.40;90.30;;;;;;4941673;28;19937;-85
2022/08/07 03:32:48;;;;;;;;;;;14.50;91.00;;;;;;4957558;28;19926;-85
2022/08/07 03:35:26;;;;;;;;;;;14.30;90.90;;;;;;4968463;28;19930;-85
2022/08/07 03:38:12;;;;;;;;;;;14.20;90.50;;;;;;4964351;28;20225;-85
2022/08/07 03:40:42;;;;;;;;;;;14.20;90.90;;;;;;4954768;28;19949;-85
2022/08/07 03:43:14;;;;;;;;;;;14.70;91.20;;;;;;4980334;28;19930;-85
2022/08/07 03:45:50;;;;;;;;;;;14.10;90.70;;;;;;4954837;28;19926;-87
2022/08/07 03:48:23;;;;;;;;;;;14.10;91.40;;;;;;4942887;28;19933;-87
2022/08/07 03:50:54;;;;;;;;;;;13.90;91.30;;;;;;4941118;28;19926;-88
2022/08/07 03:53:30;;;;;;;;;;;14.00;91.20;;;;;;4955507;28;19937;-90
2022/08/07 03:56:19;;;;;;;;;;;14.00;91.60;;;;;;4970318;28;19926;-88
2022/08/07 03:59:03;;;;;;;;;;;14.00;91.20;;;;;;4971884;28;20336;-89
2022/08/07 04:01:40;;;;;;;;;;;13.90;91.20;;;;;;4972345;28;19933;-90
2022/08/07 04:04:14;;;;;;;;;;;13.90;91.50;;;;;;4971917;28;19933;-90
2022/08/07 04:06:46;;;;;;;;;;;13.90;91.50;;;;;;4972779;28;19937;-90
2022/08/07 04:09:19;;;;;;;;;;;13.90;91.90;;;;;;4981083;28;19926;-91
2022/08/07 04:11:54;;;;;;;;;;;13.80;91.70;;;;;;4942863;28;20408;-89
2022/08/07 04:14:41;;;;;;;;;;;14.00;91.60;;;;;;4975838;28;19930;-87
2022/08/07 04:17:15;;;;;;;;;;;13.80;91.70;;;;;;4972690;28;19930;-90
2022/08/07 04:19:53;;;;;;;;;;;13.90;91.80;;;;;;4971323;28;19937;-89
2022/08/07 04:22:26;;;;;;;;;;;13.90;91.90;;;;;;4984023;28;19930;-92
2022/08/07 04:24:59;;;;;;;;;;;13.80;92.10;;;;;;4974817;28;19927;-86
2022/08/07 04:27:30;;;;;;;;;;;13.80;91.70;;;;;;4976941;28;19926;-86
2022/08/07 04:30:06;;;;;;;;;;;13.80;91.70;;;;;;4978143;28;19914;-90
2022/08/07 04:32:58;;;;;;;;;;;13.90;91.90;;;;;;4976362;28;19926;-86
2022/08/07 04:35:29;;;;;;;;;;;13.90;91.80;;;;;;4961024;28;19933;-86
2022/08/07 04:38:05;;;;;;;;;;;13.80;92.30;;;;;;4964549;28;19930;-87
2022/08/07 04:40:39;;;;;;;;;;;13.80;92.30;;;;;;4971447;28;19930;-87
2022/08/07 04:43:26;;;;;;;;;;;13.70;92.60;;;;;;4977347;28;20310;-87
2022/08/07 04:46:14;;;;;;;;;;;13.80;92.60;;;;;;4960402;28;19937;-86
2022/08/07 04:48:59;;;;;;;;;;;13.70;93.40;;;;;;4952045;28;19926;-86
2022/08/07 04:51:48;;;;;;;;;;;13.70;93.10;;;;;;4967838;28;19930;-87
2022/08/07 04:54:21;;;;;;;;;;;13.60;92.70;;;;;;4950772;28;19930;-85
2022/08/07 04:57:03;;;;;;;;;;;13.60;93.30;;;;;;4982031;28;19926;-87
2022/08/07 04:59:54;;;;;;;;;;;13.60;92.90;;;;;;4958676;28;19926;-88
2022/08/07 05:02:45;;;;;;;;;;;13.70;92.90;;;;;;4969067;28;19933;-89
2022/08/07 05:05:35;;;;;;;;;;;13.70;92.60;;;;;;4953162;28;19934;-89
2022/08/07 05:08:34;;;;;;;;;;;13.70;92.50;;;;;;4958222;28;20282;-88
2022/08/07 05:11:31;;;;;;;;;;;13.80;92.50;;;;;;4959395;28;19933;-87
2022/08/07 05:14:26;;;;;;;;;;;13.80;92.80;;;;;;4968908;28;19941;-86
2022/08/07 05:17:17;;;;;;;;;;;13.90;92.70;;;;;;4940618;28;19937;-85
2022/08/07 05:20:04;;;;;;;;;;;13.90;92.80;;;;;;4968442;28;19934;-89
2022/08/07 05:22:37;;;;;;;;;;;14.00;92.70;;;;;;4967387;28;19926;-85
2022/08/07 05:25:09;;;;;;;;;;;13.80;92.40;;;;;;4950141;28;19926;-85
2022/08/07 05:27:52;;;;;;;;;;;14.40;92.70;;;;;;4945970;28;20029;-86
2022/08/07 05:30:40;;;;;;;;;;;14.10;92.70;;;;;;4967306;28;19930;-84
2022/08/07 05:33:09;;;;;;;;;;;14.20;92.40;;;;;;4966461;28;19933;-85
2022/08/07 05:35:39;;;;;;;;;;;14.20;92.60;;;;;;4922206;28;19931;-84
2022/08/07 05:38:10;;;;;;;;;;;14.30;92.50;;;;;;4951315;28;19930;-85
2022/08/07 05:40:39;;;;;;;;;;;14.30;92.50;;;;;;4951278;28;19933;-85
2022/08/07 05:43:20;;;;;;;;;;;14.60;92.60;;;;;;4951635;28;19930;-86
2022/08/07 05:46:08;;;;;;;;;;;14.40;92.50;;;;;;4958284;28;19932;-86
2022/08/07 05:48:37;;;;;;;;;;;14.50;92.60;;;;;;4952119;28;20297;-85
2022/08/07 05:51:25;;;;;;;;;;;14.60;92.30;;;;;;4939740;28;19930;-86
2022/08/07 05:54:06;;;;;;;;;;;14.70;92.30;;;;;;4952441;28;19926;-85
2022/08/07 05:56:55;;;;;;;;;;;14.70;92.20;;;;;;4969016;28;20260;-85
2022/08/07 05:59:24;;;;;;;;;;;14.80;92.10;;;;;;4969365;28;19930;-85
2022/08/07 06:02:00;;;;;;;;;;;14.90;92.00;;;;;;4969881;28;19927;-86
2022/08/07 06:04:30;;;;;;;;;;;15.00;92.10;;;;;;4968270;28;19930;-86
2022/08/07 06:07:02;;;;;;;;;;;15.00;91.70;;;;;;4969418;28;20194;-86
2022/08/07 06:09:32;;;;;;;;;;;15.10;91.80;;;;;;4981636;28;19929;-87
2022/08/07 06:12:20;;;;;;;;;;;15.20;91.70;;;;;;4973804;28;19926;-87
2022/08/07 06:14:59;;;;;;;;;;;15.30;91.60;;;;;;4972138;28;19933;-89
2022/08/07 06:17:33;;;;;;;;;;;15.40;91.50;;;;;;4955090;28;19937;-86
2022/08/07 06:20:08;;;;;;;;;;;15.40;91.40;;;;;;4972836;28;19930;-89
2022/08/07 06:22:54;;;;;;;;;;;15.60;91.30;;;;;;4955643;28;19937;-86
2022/08/07 06:25:45;;;;;;;;;;;15.60;91.20;;;;;;4966542;28;19945;-87
2022/08/07 06:28:22;;;;;;;;;;;15.70;91.10;;;;;;4987643;28;20035;-86
2022/08/07 06:30:56;;;;;;;;;;;15.80;91.10;;;;;;4964044;28;20324;-86
2022/08/07 06:33:26;;;;;;;;;;;15.90;90.80;;;;;;4973998;28;19926;-87
2022/08/07 06:35:56;;;;;;;;;;;16.10;90.70;;;;;;4974574;28;19937;-86
2022/08/07 06:38:48;;;;;;;;;;;16.10;90.70;;;;;;4972823;28;19937;-86
2022/08/07 06:41:40;;;;;;;;;;;16.20;90.60;;;;;;4947170;28;19937;-87
2022/08/07 06:44:46;;;;;;;;;;;16.30;90.40;;;;;;4946186;29;19930;-86
2022/08/07 06:47:18;;;;;;;;;;;16.40;90.10;;;;;;4956474;28;19930;-85
2022/08/07 06:49:48;;;;;;;;;;;16.50;89.40;;;;;;4971593;28;19926;-88
2022/08/07 06:52:33;;;;;;;;;;;16.60;89.30;;;;;;4964021;28;19937;-86
2022/08/07 06:55:08;;;;;;;;;;;16.70;88.60;;;;;;4985048;28;19937;-86
2022/08/07 06:57:58;;;;;;;;;;;16.80;88.50;;;;;;4976041;28;19933;-89
2022/08/07 07:00:30;;;;;;;;;;;16.90;88.60;;;;;;4962056;28;19946;-86
2022/08/07 07:03:00;;;;;;;;;;;16.90;88.30;;;;;;4956134;28;19937;-86
2022/08/07 07:05:38;;;;;;;;;;;17.00;89.10;;;;;;4970339;28;19942;-85
2022/08/07 07:08:27;;;;;;;;;;;17.10;89.10;;;;;;4974060;28;19937;-87
2022/08/07 07:10:57;;;;;;;;;;;17.20;88.70;;;;;;4976488;28;20295;-87
2022/08/07 07:13:30;;;;;;;;;;;17.30;88.70;;;;;;4960095;28;19926;-86
2022/08/07 07:16:19;;;;;;;;;;;17.30;89.10;;;;;;4961658;28;19937;-88
2022/08/07 07:18:54;;;;;;;;;;;17.40;88.70;;;;;;4984865;28;19926;-87
2022/08/07 07:21:25;;;;;;;;;;;17.50;88.40;;;;;;4977999;28;19945;-86
2022/08/07 07:24:09;;;;;;;;;;;17.60;88.10;;;;;;4972656;28;19930;-87
2022/08/07 07:26:40;;;;;;;;;;;17.70;87.70;;;;;;4976776;28;19926;-86
2022/08/07 07:29:21;;;;;;;;;;;17.70;87.60;;;;;;4973153;28;19930;-86
2022/08/07 07:32:11;;;;;;;;;;;17.80;87.50;;;;;;4971927;28;19926;-86
2022/08/07 07:34:48;;;;;;;;;;;17.90;86.90;;;;;;4954938;28;19926;-86
2022/08/07 07:37:17;;;;;;;;;;;18.00;86.20;;;;;;4944666;28;19934;-86
2022/08/07 07:40:11;;;;;;;;;;;18.00;86.50;;;;;;4977159;28;19927;-86
2022/08/07 07:42:43;;;;;;;;;;;18.20;86.70;;;;;;4977860;28;19930;-87
2022/08/07 07:45:22;;;;;;;;;;;18.20;86.40;;;;;;4976167;28;19927;-87
2022/08/07 07:48:12;;;;;;;;;;;18.30;86.20;;;;;;4971928;28;20301;-89
2022/08/07 07:51:00;;;;;;;;;;;18.40;85.80;;;;;;4945024;28;19926;-88
2022/08/07 07:53:29;;;;;;;;;;;18.60;85.70;;;;;;4972400;28;19955;-86
2022/08/07 07:56:02;;;;;;;;;;;18.60;85.50;;;;;;4971461;28;19937;-88
2022/08/07 07:58:32;;;;;;;;;;;18.70;85.60;;;;;;4974465;28;19926;-88
2022/08/07 08:01:08;;;;;;;;;;;18.80;84.50;;;;;;4978471;28;19926;-88
2022/08/07 08:03:59;;;;;;;;;;;18.90;83.50;;;;;;4971271;28;19927;-85
2022/08/07 08:06:40;;;;;;;;;;;19.00;83.80;;;;;;4949352;28;19926;-87
2022/08/07 08:09:20;;;;;;;;;;;19.10;84.00;;;;;;4965008;28;19934;-87
2022/08/07 08:11:52;;;;;;;;;;;19.10;84.00;;;;;;4968675;28;19952;-88
2022/08/07 08:14:33;;;;;;;;;;;19.30;83.70;;;;;;4970176;28;19942;-88
2022/08/07 08:17:06;;;;;;;;;;;19.30;83.20;;;;;;4974777;28;19934;-88
2022/08/07 08:19:56;;;;;;;;;;;19.50;83.10;;;;;;4976768;28;19926;-87
2022/08/07 08:28:25;;;;;;;;;;;19.70;82.70;;;;;;4980486;28;19932;-86
2022/08/07 08:31:09;;;;;;;;;;;19.70;82.30;;;;;;4993737;28;19930;-90
2022/08/07 08:33:46;;;;;;;;;;;19.80;82.30;;;;;;4962220;28;19933;-85
2022/08/07 08:36:17;;;;;;;;;;;19.80;82.00;;;;;;4973794;28;20234;-86
2022/08/07 08:38:53;;;;;;;;;;;19.90;81.90;;;;;;4946262;28;20252;-85
2022/08/07 08:41:39;;;;;;;;;;;20.00;81.70;;;;;;4977068;28;20278;-86
2022/08/07 08:44:25;;;;;;;;;;;20.10;81.70;;;;;;4969805;28;19946;-86
2022/08/07 08:47:14;;;;;;;;;;;20.10;81.10;;;;;;4977411;28;20418;-87
2022/08/07 08:49:46;;;;;;;;;;;20.20;81.00;;;;;;4964113;28;19927;-86
2022/08/07 08:52:37;;;;;;;;;;;21.40;82.00;;;;;;4963416;28;19934;-86
2022/08/07 08:55:20;;;;;;;;;;;20.30;80.50;;;;;;4966751;28;19934;-86
2022/08/07 08:58:18;;;;;;;;;;;20.40;80.30;;;;;;4952071;28;19944;-86
2022/08/07 09:00:58;;;;;;;;;;;20.50;80.10;;;;;;4965574;28;19934;-85
2022/08/07 09:03:30;;;;;;;;;;;20.60;80.00;;;;;;4968002;28;21255;-85
2022/08/07 09:06:37;;;;;;;;;;;20.60;79.70;;;;;;4964296;28;19934;-84
2022/08/07 09:09:24;;;;;;;;;;;20.70;79.40;;;;;;4964341;28;20522;-84
2022/08/07 09:12:08;;;;;;;;;;;20.90;79.10;;;;;;4967682;28;19930;-86
2022/08/07 09:15:15;;;;;;;;;;;20.90;78.20;;;;;;4965758;28;20047;-84
2022/08/07 09:18:03;;;;;;;;;;;21.00;78.00;;;;;;4948362;28;19941;-83
2022/08/07 09:20:39;;;;;;;;;;;21.10;78.40;;;;;;4964544;28;19934;-85
2022/08/07 09:23:12;;;;;;;;;;;21.10;76.70;;;;;;4950511;28;19926;-85
2022/08/07 09:26:13;;;;;;;;;;;21.20;77.40;;;;;;4964890;28;19930;-84
2022/08/07 09:28:52;;;;;;;;;;;21.30;77.00;;;;;;4965130;28;19926;-84
2022/08/07 09:31:49;;;;;;;;;;;21.40;76.70;;;;;;4966507;28;19934;-85
2022/08/07 09:34:24;;;;;;;;;;;21.40;76.20;;;;;;4981733;28;19934;-83
2022/08/07 09:37:02;;;;;;;;;;;21.60;77.00;;;;;;4950008;28;19933;-85
2022/08/07 09:39:37;;;;;;;;;;;21.60;74.70;;;;;;4963732;28;19946;-84
2022/08/07 09:42:25;;;;;;;;;;;21.70;75.00;;;;;;4971248;28;19930;-85
2022/08/07 09:45:13;;;;;;;;;;;21.80;74.80;;;;;;4958206;28;19934;-83
2022/08/07 09:48:12;;;;;;;;;;;21.90;75.70;;;;;;4988302;28;19927;-88
2022/08/07 09:50:53;;;;;;;;;;;21.90;74.90;;;;;;4972590;28;19926;-89
2022/08/07 09:53:22;;;;;;;;;;;22.00;75.30;;;;;;4974212;28;19926;-89
2022/08/07 09:55:55;;;;;;;;;;;22.20;74.50;;;;;;4965537;28;19926;-88
2022/08/07 09:58:43;;;;;;;;;;;22.10;74.40;;;;;;4959596;28;20027;-86
2022/08/07 10:01:17;;;;;;;;;;;22.20;74.30;;;;;;4955788;28;20285;-89
2022/08/07 10:04:07;;;;;;;;;;;22.30;74.60;;;;;;4973712;28;19926;-84
2022/08/07 10:06:50;;;;;;;;;;;22.40;73.60;;;;;;4975912;28;19930;-83
2022/08/07 10:12:55;;;;;;;;;;;22.70;72.00;;;;;;4969874;28;19937;-89
2022/08/07 10:15:22;;;;;;;;;;;22.70;71.10;;;;;;4960778;28;19926;-91
2022/08/07 10:18:09;;;;;;;;;;;22.70;70.70;;;;;;4948841;28;19926;-86
2022/08/07 10:20:38;;;;;;;;;;;22.80;70.80;;;;;;4988712;28;19936;-85
2022/08/07 10:23:26;;;;;;;;;;;22.90;70.10;;;;;;4988030;28;19930;-86
2022/08/07 10:26:14;;;;;;;;;;;23.00;68.70;;;;;;4984955;28;20036;-89
2022/08/07 10:29:20;;;;;;;;;;;23.10;68.60;;;;;;4972139;28;20285;-87
2022/08/07 10:31:48;;;;;;;;;;;23.20;68.20;;;;;;4937793;28;19927;-86
2022/08/07 10:34:29;;;;;;;;;;;23.10;67.60;;;;;;4952497;28;19927;-87
2022/08/07 10:37:17;;;;;;;;;;;23.40;67.50;;;;;;4974820;28;19930;-85
2022/08/07 10:40:01;;;;;;;;;;;23.50;67.30;;;;;;4983061;28;20286;-87
2022/08/07 10:42:38;;;;;;;;;;;23.60;67.50;;;;;;4972391;28;19940;-88
2022/08/07 10:45:30;;;;;;;;;;;23.70;64.50;;;;;;4948977;29;19934;-87
2022/08/07 10:48:15;;;;;;;;;;;23.80;65.50;;;;;;4950621;28;20394;-87
2022/08/07 10:50:48;;;;;;;;;;;23.90;66.50;;;;;;4972993;28;20405;-84
2022/08/07 10:53:35;;;;;;;;;;;24.00;66.10;;;;;;4972704;28;19934;-86
2022/08/07 10:56:31;;;;;;;;;;;24.10;66.30;;;;;;4953048;28;19961;-85
2022/08/07 10:59:17;;;;;;;;;;;24.30;65.90;;;;;;4973171;28;19953;-87
2022/08/07 11:01:58;;;;;;;;;;;24.30;66.10;;;;;;4950461;28;19933;-85
2022/08/07 11:04:54;;;;;;;;;;;24.30;63.90;;;;;;4968842;28;20201;-90
2022/08/07 11:07:22;;;;;;;;;;;24.40;65.30;;;;;;4973721;28;19933;-87
2022/08/07 11:10:40;;;;;;;;;;;24.40;65.10;;;;;;4982572;28;19933;-91
2022/08/07 11:13:07;;;;;;;;;;;24.60;64.60;;;;;;4957176;28;19937;-91
2022/08/07 11:16:20;;;;;;;;;;;24.60;65.30;;;;;;4962792;29;19926;-92
2022/08/07 11:18:56;;;;;;;;;;;24.80;63.80;;;;;;4952738;29;19934;-92
2022/08/07 11:21:27;;;;;;;;;;;24.90;63.80;;;;;;4951095;29;19933;-91
2022/08/07 11:24:02;;;;;;;;;;;25.00;63.00;;;;;;4951525;29;19944;-91
2022/08/07 11:26:47;;;;;;;;;;;25.10;63.70;;;;;;4963494;28;19926;-91
2022/08/07 11:29:25;;;;;;;;;;;25.20;63.00;;;;;;4972431;28;19934;-92
2022/08/07 11:32:17;;;;;;;;;;;25.40;62.60;;;;;;4988403;28;19930;-90
2022/08/07 11:34:55;;;;;;;;;;;25.50;62.80;;;;;;4974798;28;19926;-91
2022/08/07 11:37:47;;;;;;;;;;;25.70;62.90;;;;;;4974689;28;19914;-92
2022/08/07 11:40:35;;;;;;;;;;;25.70;62.00;;;;;;4942700;29;19933;-91
2022/08/07 11:43:15;;;;;;;;;;;25.60;61.80;;;;;;4963710;28;19930;-91
2022/08/07 11:46:14;;;;;;;;;;;25.70;61.20;;;;;;4957440;28;19926;-91
2022/08/07 11:49:09;;;;;;;;;;;25.70;61.80;;;;;;4954367;28;19926;-92
2022/08/07 11:52:12;;;;;;;;;;;25.90;61.90;;;;;;4955402;28;19936;-91
2022/08/07 11:54:52;;;;;;;;;;;26.10;61.20;;;;;;4968857;28;19914;-92
2022/08/07 11:57:25;;;;;;;;;;;26.30;61.00;;;;;;4966107;28;19981;-92
2022/08/07 12:00:18;;;;;;;;;;;26.40;61.70;;;;;;4980301;28;19926;-92
2022/08/07 12:03:01;;;;;;;;;;;26.50;60.90;;;;;;4981518;28;20342;-91
2022/08/07 12:05:40;;;;;;;;;;;26.70;61.20;;;;;;4964089;28;19926;-91
2022/08/07 12:08:36;;;;;;;;;;;26.70;59.50;;;;;;4964858;28;19930;-92
2022/08/07 12:11:21;;;;;;;;;;;26.60;59.80;;;;;;4965570;28;19933;-93
2022/08/07 12:14:07;;;;;;;;;;;26.70;60.20;;;;;;4970168;28;19936;-92
2022/08/07 12:16:59;;;;;;;;;;;26.80;59.60;;;;;;4951408;29;19919;-92
2022/08/07 12:19:50;;;;;;;;;;;26.80;60.30;;;;;;4950440;29;19926;-92
2022/08/07 12:22:36;;;;;;;;;;;26.90;59.90;;;;;;4954287;29;19926;-92
2022/08/07 12:25:55;;;;;;;;;;;27.00;60.40;;;;;;4973245;28;19936;-91
2022/08/07 12:28:48;;;;;;;;;;;27.20;60.10;;;;;;4975997;28;19937;-92
2022/08/07 12:31:40;;;;;;;;;;;27.30;59.40;;;;;;4990990;28;19930;-93
2022/08/07 12:34:30;;;;;;;;;;;27.30;59.30;;;;;;4949043;28;19936;-92
2022/08/07 12:36:59;;;;;;;;;;;27.40;59.50;;;;;;4973071;28;19926;-92
2022/08/07 12:39:29;;;;;;;;;;;27.50;59.20;;;;;;4972989;28;19933;-92
2022/08/07 12:42:12;;;;;;;;;;;27.50;59.10;;;;;;4990287;28;19926;-92
2022/08/07 12:44:42;;;;;;;;;;;27.60;59.20;;;;;;4987932;28;19926;-92
2022/08/07 12:47:17;;;;;;;;;;;27.60;59.40;;;;;;4956121;28;19930;-93
2022/08/07 12:50:17;;;;;;;;;;;27.70;58.70;;;;;;4971722;28;19936;-93
2022/08/07 12:53:05;;;;;;;;;;;27.80;58.80;;;;;;4972395;28;19930;-93
2022/08/07 12:55:57;;;;;;;;;;;27.90;58.90;;;;;;4986383;28;19936;-91
2022/08/07 12:58:36;;;;;;;;;;;28.00;58.80;;;;;;4970505;28;19932;-93
2022/08/07 13:01:11;;;;;;;;;;;28.00;58.40;;;;;;4961847;29;20131;-92
2022/08/07 13:03:43;;;;;;;;;;;28.10;58.70;;;;;;4936388;29;19937;-93
2022/08/07 13:06:30;;;;;;;;;;;28.10;58.60;;;;;;4950568;29;19930;-94
2022/08/07 13:09:24;;;;;;;;;;;28.10;58.70;;;;;;4957951;28;19934;-92
2022/08/07 13:12:24;;;;;;;;;;;28.20;57.70;;;;;;4970681;28;20373;-91
2022/08/07 13:15:07;;;;;;;;;;;28.30;57.90;;;;;;4983748;28;19926;-92
2022/08/07 13:17:42;;;;;;;;;;;28.30;57.70;;;;;;4989406;28;20348;-93
2022/08/07 13:20:33;;;;;;;;;;;28.30;57.60;;;;;;4966993;28;19926;-92
2022/08/07 13:23:24;;;;;;;;;;;28.50;57.60;;;;;;4964657;28;19930;-94
2022/08/07 13:26:15;;;;;;;;;;;28.20;57.40;;;;;;4959122;28;20398;-92
2022/08/07 13:28:54;;;;;;;;;;;28.30;57.20;;;;;;4961165;28;20283;-93
2022/08/07 13:31:27;;;;;;;;;;;28.40;57.70;;;;;;4931232;29;19941;-93
2022/08/07 13:34:15;;;;;;;;;;;28.60;57.30;;;;;;4964841;28;20034;-92
2022/08/07 13:37:03;;;;;;;;;;;28.70;56.90;;;;;;4936829;29;19927;-92
2022/08/07 13:39:43;;;;;;;;;;;28.90;57.10;;;;;;4950333;29;19930;-93
2022/08/07 13:42:37;;;;;;;;;;;29.10;57.20;;;;;;4975771;28;19926;-92
2022/08/07 13:45:08;;;;;;;;;;;29.30;56.80;;;;;;4984780;28;19936;-93
2022/08/07 13:47:56;;;;;;;;;;;29.40;56.20;;;;;;4971229;28;19945;-93
2022/08/07 13:50:39;;;;;;;;;;;29.50;56.30;;;;;;4958653;28;19936;-93
2022/08/07 13:53:32;;;;;;;;;;;29.60;56.40;;;;;;4969978;28;19930;-94
2022/08/07 13:56:22;;;;;;;;;;;29.70;55.50;;;;;;4972910;28;19925;-92
2022/08/07 13:59:11;;;;;;;;;;;29.80;56.00;;;;;;4956063;28;19930;-93
2022/08/07 14:01:45;;;;;;;;;;;30.00;55.50;;;;;;4951361;29;19926;-94
2022/08/07 14:04:24;;;;;;;;;;;30.10;55.50;;;;;;4935376;29;20228;-94
2022/08/07 14:06:58;;;;;;;;;;;30.30;56.90;;;;;;4949822;29;19926;-93
2022/08/07 14:09:29;;;;;;;;;;;30.40;56.60;;;;;;4968723;28;19925;-95
2022/08/07 14:12:40;;;;;;;;;;;30.70;56.10;;;;;;4975649;28;19924;-93
2022/08/07 14:15:35;;;;;;;;;;;31.20;57.20;;;;;;4988788;28;19918;-94
2022/08/07 14:18:07;;;;;;;;;;;31.30;54.60;;;;;;4973138;28;19948;-94
2022/08/07 14:21:14;;;;;;;;;;;32.80;56.50;;;;;;4932144;28;10000474;-95
2022/08/07 14:24:35;;;;;;;;;;;32.00;54.30;;;;;;4964470;28;19926;-94
2022/08/07 14:27:09;;;;;;;;;;;32.30;55.50;;;;;;4977373;28;19917;-94
2022/08/07 14:30:01;;;;;;;;;;;31.70;53.90;;;;;;4988969;28;19913;-94
2022/08/07 14:32:44;;;;;;;;;;;32.50;54.20;;;;;;4988219;28;19961;-95
2022/08/07 14:35:20;;;;;;;;;;;32.80;54.20;;;;;;4993233;28;19925;-94
2022/08/07 14:38:09;;;;;;;;;;;33.40;53.70;;;;;;4988454;28;19926;-94
2022/08/07 14:40:58;;;;;;;;;;;33.10;54.30;;;;;;4968167;28;20397;-95
2022/08/07 14:43:38;;;;;;;;;;;33.20;52.80;;;;;;4966618;28;19930;-95
2022/08/07 14:46:27;;;;;;;;;;;33.30;52.40;;;;;;4956085;28;19926;-96
2022/08/07 14:48:59;;;;;;;;;;;33.40;52.70;;;;;;4973161;28;19926;-95
2022/08/07 14:51:49;;;;;;;;;;;33.70;52.80;;;;;;4970913;28;19926;-96
2022/08/07 14:54:33;;;;;;;;;;;33.60;52.10;;;;;;4965892;28;19934;-95
2022/08/07 14:57:10;;;;;;;;;;;33.60;51.80;;;;;;4961832;29;19933;-94
2022/08/07 14:59:49;;;;;;;;;;;33.50;51.90;;;;;;4947864;28;19926;-94
2022/08/07 15:02:43;;;;;;;;;;;33.50;51.90;;;;;;4964690;28;19949;-94
2022/08/07 15:05:24;;;;;;;;;;;33.60;52.20;;;;;;4947283;28;19926;-95
2022/08/07 15:07:52;;;;;;;;;;;33.70;51.70;;;;;;4966119;28;20369;-93
2022/08/07 15:10:23;;;;;;;;;;;34.00;52.10;;;;;;4953597;28;19933;-94
2022/08/07 15:12:59;;;;;;;;;;;34.30;51.70;;;;;;4993736;28;19925;-94
2022/08/07 15:15:41;;;;;;;;;;;34.40;50.80;;;;;;4955088;29;19935;-93
2022/08/07 15:18:21;;;;;;;;;;;34.30;50.80;;;;;;4954461;29;19933;-94
2022/08/07 15:21:14;;;;;;;;;;;34.30;50.90;;;;;;4968302;28;19941;-95
2022/08/07 15:24:04;;;;;;;;;;;34.50;50.50;;;;;;4935839;29;19926;-95
2022/08/07 15:27:05;;;;;;;;;;;35.20;50.90;;;;;;4958754;28;19926;-95
2022/08/07 15:29:52;;;;;;;;;;;35.10;50.20;;;;;;4963932;28;19941;-93
2022/08/07 15:32:42;;;;;;;;;;;35.40;50.30;;;;;;4969661;28;19930;-93
2022/08/07 15:35:28;;;;;;;;;;;35.70;50.00;;;;;;4975346;28;19915;-93
2022/08/07 15:38:16;;;;;;;;;;;35.80;49.90;;;;;;4966143;28;19926;-91
2022/08/07 15:41:02;;;;;;;;;;;36.00;49.60;;;;;;4966217;28;19926;-92
2022/08/07 15:44:16;;;;;;;;;;;36.20;49.20;;;;;;4980204;28;20426;-93
2022/08/07 15:46:48;;;;;;;;;;;36.10;48.30;;;;;;4925966;29;20517;-92